KCEU/CEU METAR and TAF weather

Enter ICAO airport designator
Station Type Date Time Source
KCEU METAR 2020/09/22 23:54 UTC NOAA

KCEU 222354Z AUTO 24003KT 10SM CLR 17/11 A3015 RMK AO2 SLP205 T01670111 10206 20161 56007


Station Type Date Time Source
KCEU Decoded METAR 2020/09/22 23:54 UTC NOAA

CLEMSON-OCONEE COUNTY AIRPORT , SC, United States (KCEU) 34-40N 082-53W 268M
Sep 22, 2020 - 07:54 PM EDT / 2020.09.22 2354 UTC
Wind: from the WSW (240 degrees) at 3 MPH (3 KT):0
Visibility: 10 mile(s):0
Sky conditions: clear
Temperature: 62.1 F (16.7 C)
Dew Point: 52.0 F (11.1 C)
Relative Humidity: 69%
Pressure (altimeter): 30.15 in. Hg (1020 hPa)
Pressure tendency: 0.02 inches (0.7 hPa) lower than three hours ago
ob: KCEU 222354Z AUTO 24003KT 10SM CLR 17/11 A3015 RMK AO2 SLP205 T01670111 10206 20161 56007
cycle: 0

Station Type Date Time Source
KCEU TAF UTC NOAA

Error!

Example: see airport list